createdAt,value
2019-02-22T00:01:19.811Z,99551.27
2019-02-22T00:03:51.495Z,99545.23
2019-02-22T00:06:23.181Z,99546.97
2019-02-22T00:08:54.512Z,99545.33
2019-02-22T00:11:25.982Z,99545.33
2019-02-22T00:13:57.706Z,99544.98
2019-02-22T00:16:29.591Z,99549.16
2019-02-22T00:19:01.044Z,99550.95
2019-02-22T00:21:33.043Z,99554.47
2019-02-22T00:24:04.911Z,99565.14
2019-02-22T00:26:36.571Z,99561.06
2019-02-22T00:29:08.236Z,99557.98
2019-02-22T00:31:40.143Z,99567.23
2019-02-22T00:34:11.805Z,99574.95
2019-02-22T00:36:43.639Z,99578.93
2019-02-22T00:39:15.285Z,99576.97
2019-02-22T00:41:46.945Z,99589.48
2019-02-22T00:44:18.693Z,99584.17
2019-02-22T00:46:50.416Z,99584.17
2019-02-22T00:49:22.219Z,99584.81
2019-02-22T00:51:53.928Z,99578.80
2019-02-22T00:54:25.581Z,99578.80
2019-02-22T00:56:57.815Z,99590.73
2019-02-22T00:59:29.842Z,99590.73
2019-02-22T01:02:02.025Z,99600.53
2019-02-22T01:04:34.179Z,99598.91
2019-02-22T01:07:06.086Z,99604.00
2019-02-22T01:09:37.916Z,99604.00
2019-02-22T01:12:09.755Z,99608.00
2019-02-22T01:14:41.703Z,99626.53
2019-02-22T01:17:13.927Z,99626.53
2019-02-22T01:19:45.693Z,99630.25
2019-02-22T01:22:18.679Z,99628.87
2019-02-22T01:24:50.397Z,99628.87
2019-02-22T01:27:23.321Z,99631.17
2019-02-22T01:29:55.049Z,99638.56
2019-02-22T01:32:26.736Z,99640.47
2019-02-22T01:34:58.655Z,99654.66
2019-02-22T01:37:30.407Z,99654.66
2019-02-22T01:40:02.011Z,99657.03
2019-02-22T01:42:33.535Z,99666.34
2019-02-22T01:45:05.400Z,99667.75
2019-02-22T01:47:37.240Z,99667.36
2019-02-22T01:50:08.998Z,99678.90
2019-02-22T01:52:40.540Z,99678.90
2019-02-22T01:55:11.967Z,99679.29
2019-02-22T01:57:43.866Z,99682.58
2019-02-22T02:00:15.718Z,99685.30
2019-02-22T02:02:47.637Z,99684.59
2019-02-22T02:05:19.556Z,99684.59
2019-02-22T02:07:51.412Z,99713.87
2019-02-22T02:10:23.022Z,99713.87
2019-02-22T02:12:54.639Z,99710.25
2019-02-22T02:15:26.471Z,99709.41
2019-02-22T02:17:58.229Z,99716.17
2019-02-22T02:20:30.049Z,99716.17
2019-02-22T02:23:01.628Z,99711.78
2019-02-22T02:25:33.533Z,99711.78
2019-02-22T02:28:05.327Z,99730.47
2019-02-22T02:30:36.985Z,99739.71
2019-02-22T02:33:08.685Z,99732.13
2019-02-22T02:35:40.943Z,99741.37
2019-02-22T02:38:12.554Z,99751.78
2019-02-22T02:40:44.373Z,99758.02
2019-02-22T02:43:16.119Z,99755.33
2019-02-22T02:45:47.972Z,99760.56
2019-02-22T02:48:19.935Z,99760.56
2019-02-22T02:50:51.544Z,99759.89
2019-02-22T02:53:23.327Z,99762.44
2019-02-22T02:55:55.077Z,99762.44
2019-02-22T02:58:26.559Z,99764.99
2019-02-22T03:00:58.083Z,99774.06
2019-02-22T03:03:29.926Z,99785.45
2019-02-22T03:06:20.438Z,99784.56
2019-02-22T03:08:52.372Z,99787.92
2019-02-22T03:11:31.494Z,99800.62
2019-02-22T03:14:04.732Z,99800.62
2019-02-22T03:16:38.645Z,99806.45
2019-02-22T03:19:10.384Z,99806.45
2019-02-22T03:21:42.492Z,99810.70
2019-02-22T03:24:14.095Z,99817.34
2019-02-22T03:26:45.987Z,99821.44
2019-02-22T03:29:17.689Z,99835.25
2019-02-22T03:31:50.165Z,99836.97
2019-02-22T03:34:21.866Z,99836.57
2019-02-22T03:36:54.127Z,99839.66
2019-02-22T03:39:25.892Z,99847.15
2019-02-22T03:41:57.731Z,99844.25
2019-02-22T03:44:29.400Z,99844.25
2019-02-22T03:47:04.014Z,99847.73
2019-02-22T03:49:36.189Z,99847.66
2019-02-22T03:52:30.116Z,99851.59
2019-02-22T03:55:01.875Z,99857.23
2019-02-22T03:57:33.542Z,99864.68
2019-02-22T04:00:05.372Z,99864.68
2019-02-22T04:02:37.558Z,99858.39
2019-02-22T04:05:09.765Z,99865.56
2019-02-22T04:07:41.412Z,99873.48
2019-02-22T04:10:13.115Z,99882.03
2019-02-22T04:12:44.904Z,99882.26
2019-02-22T04:15:16.569Z,99889.88
2019-02-22T04:17:48.272Z,99889.05
2019-02-22T04:20:19.980Z,99898.09
2019-02-22T04:22:51.952Z,99893.54
2019-02-22T04:25:23.627Z,99895.58
2019-02-22T04:27:55.365Z,99903.54
2019-02-22T04:30:28.046Z,99906.01
2019-02-22T04:32:59.456Z,99911.88
2019-02-22T04:35:31.798Z,99911.74
2019-02-22T04:38:03.447Z,99918.01
2019-02-22T04:40:35.341Z,99921.84
2019-02-22T04:43:08.375Z,99912.91
2019-02-22T04:45:41.694Z,99918.94
2019-02-22T04:48:14.534Z,99918.94
2019-02-22T04:50:46.188Z,99919.52
2019-02-22T04:53:18.058Z,99924.39
2019-02-22T04:55:49.703Z,99924.39
2019-02-22T04:58:21.340Z,99927.87
2019-02-22T05:00:52.932Z,99928.66
2019-02-22T05:03:24.592Z,99928.66
2019-02-22T05:05:56.312Z,99931.23
2019-02-22T05:08:28.718Z,99929.69
2019-02-22T05:11:00.000Z,99933.13
2019-02-22T05:13:31.749Z,99934.28
2019-02-22T05:16:03.984Z,99933.33
2019-02-22T05:18:35.897Z,99933.33
2019-02-22T05:21:07.697Z,99935.97
2019-02-22T05:23:39.253Z,99926.58
2019-02-22T05:26:10.570Z,99926.58
2019-02-22T05:28:42.304Z,99918.63
2019-02-22T05:31:14.238Z,99918.63
2019-02-22T05:33:45.711Z,99920.23
2019-02-22T05:36:18.331Z,99920.23
2019-02-22T05:38:49.965Z,99919.60
2019-02-22T05:41:21.739Z,99919.60
2019-02-22T05:43:54.529Z,99912.30
2019-02-22T05:46:27.289Z,99907.75
2019-02-22T05:48:59.026Z,99904.59
2019-02-22T05:51:31.095Z,99902.50
2019-02-22T05:54:02.918Z,99907.11
2019-02-22T05:56:34.619Z,99895.70
2019-02-22T05:59:06.528Z,99895.70
2019-02-22T06:01:43.624Z,99899.02
2019-02-22T06:04:15.607Z,99894.06
2019-02-22T06:06:47.547Z,99894.06
2019-02-22T06:09:19.215Z,99892.23
2019-02-22T06:11:50.910Z,99882.25
2019-02-22T06:14:22.350Z,99889.20
2019-02-22T06:16:53.817Z,99880.93
2019-02-22T06:19:25.177Z,99878.30
2019-02-22T06:21:56.417Z,99872.39
2019-02-22T06:24:28.335Z,99877.83
2019-02-22T06:27:00.018Z,99879.44
2019-02-22T06:29:31.433Z,99876.14
2019-02-22T06:32:03.667Z,99875.75
2019-02-22T06:34:35.451Z,99878.20
2019-02-22T06:37:07.126Z,99871.72
2019-02-22T06:39:38.944Z,99864.37
2019-02-22T06:42:10.617Z,99858.55
2019-02-22T06:44:42.501Z,99858.55
2019-02-22T06:47:14.228Z,99856.69
2019-02-22T06:49:45.731Z,99835.42
2019-02-22T06:52:17.385Z,99835.42
2019-02-22T06:54:48.997Z,99834.66
2019-02-22T06:57:21.009Z,99834.84
2019-02-22T06:59:52.274Z,99832.97
2019-02-22T07:02:24.175Z,99821.95
2019-02-22T07:04:55.740Z,99825.50
2019-02-22T07:07:27.387Z,99816.23
2019-02-22T07:09:59.209Z,99801.33
2019-02-22T07:12:37.589Z,99807.33
2019-02-22T07:15:09.451Z,99803.94
2019-02-22T07:17:41.518Z,99797.30
2019-02-22T07:20:13.461Z,99798.80
2019-02-22T07:22:45.089Z,99793.58
2019-02-22T07:25:16.719Z,99793.08
2019-02-22T07:27:48.197Z,99785.13
2019-02-22T07:30:19.736Z,99785.13
2019-02-22T07:32:51.188Z,99774.44
2019-02-22T07:35:22.792Z,99771.73
2019-02-22T07:37:54.059Z,99765.15
2019-02-22T07:40:25.563Z,99761.12
2019-02-22T07:43:07.533Z,99753.63
2019-02-22T07:45:30.321Z,99753.63
2019-02-22T07:48:01.906Z,99757.74
2019-02-22T07:50:33.721Z,99757.74
2019-02-22T07:53:05.225Z,99758.91
2019-02-22T07:55:36.815Z,99758.34
2019-02-22T07:58:08.808Z,99744.05
2019-02-22T08:00:40.249Z,99744.05
2019-02-22T08:03:11.757Z,99736.30
2019-02-22T08:05:43.535Z,99729.59
2019-02-22T08:08:16.236Z,99728.30
2019-02-22T08:10:47.936Z,99726.55
2019-02-22T08:13:20.261Z,99716.90
2019-02-22T08:15:51.980Z,99720.84
2019-02-22T08:18:23.510Z,99720.84
2019-02-22T08:20:55.082Z,99709.55
2019-02-22T08:23:26.706Z,99709.55
2019-02-22T08:25:58.609Z,99710.92
2019-02-22T08:28:30.043Z,99697.88
2019-02-22T08:31:01.989Z,99700.88
2019-02-22T08:33:33.503Z,99691.98
2019-02-22T08:36:05.298Z,99691.98
2019-02-22T08:38:36.858Z,99689.03
2019-02-22T08:41:10.274Z,99688.83
2019-02-22T08:43:43.032Z,99692.46
2019-02-22T08:46:14.855Z,99685.82
2019-02-22T08:48:47.049Z,99680.45
2019-02-22T08:51:18.840Z,99680.45
2019-02-22T08:53:55.736Z,99676.48
2019-02-22T08:56:31.994Z,99680.26
2019-02-22T08:59:03.590Z,99679.72
2019-02-22T09:01:35.817Z,99670.08
2019-02-22T09:04:07.344Z,99665.45
2019-02-22T09:06:38.927Z,99662.81
2019-02-22T09:09:10.450Z,99657.91
2019-02-22T09:11:59.357Z,99647.33
2019-02-22T09:14:49.565Z,99649.53
2019-02-22T09:17:21.065Z,99645.72
2019-02-22T09:19:52.858Z,99638.81
2019-02-22T09:22:24.376Z,99638.81
2019-02-22T09:24:56.052Z,99643.83
2019-02-22T09:27:27.705Z,99639.83
2019-02-22T09:29:59.575Z,99636.86
2019-02-22T09:32:32.151Z,99644.66
2019-02-22T09:35:03.868Z,99631.17
2019-02-22T09:37:35.265Z,99636.92
2019-02-22T09:40:07.500Z,99622.84
2019-02-22T09:42:39.289Z,99619.27
2019-02-22T09:45:11.600Z,99619.27
2019-02-22T09:47:43.072Z,99614.63
2019-02-22T09:50:14.911Z,99605.16
2019-02-22T09:52:46.395Z,99607.40
2019-02-22T09:55:19.689Z,99609.48
2019-02-22T09:57:51.175Z,99609.48
2019-02-22T10:00:22.795Z,99606.11
2019-02-22T10:02:54.499Z,99603.64
2019-02-22T10:05:26.129Z,99598.88
2019-02-22T10:07:57.566Z,99598.88
2019-02-22T10:10:29.290Z,99603.88
2019-02-22T10:13:00.830Z,99599.48
2019-02-22T10:15:32.528Z,99593.70
2019-02-22T10:18:04.044Z,99597.19
2019-02-22T10:20:35.597Z,99589.52
2019-02-22T10:23:07.452Z,99586.47
2019-02-22T10:25:39.749Z,99586.47
2019-02-22T10:28:17.688Z,99589.08
2019-02-22T10:30:44.853Z,99586.33
2019-02-22T10:33:16.232Z,99589.11
2019-02-22T10:35:48.001Z,99589.11
2019-02-22T10:38:19.668Z,99590.45
2019-02-22T10:40:51.653Z,99600.23
2019-02-22T10:43:23.293Z,99596.58
2019-02-22T10:45:55.021Z,99591.41
2019-02-22T10:48:26.486Z,99591.41
2019-02-22T10:50:59.466Z,99594.31
2019-02-22T10:53:31.370Z,99597.86
2019-02-22T10:56:03.036Z,99595.86
2019-02-22T10:58:34.658Z,99591.94
2019-02-22T11:01:06.746Z,99591.94
2019-02-22T11:03:38.363Z,99598.04
2019-02-22T11:06:10.061Z,99604.20
2019-02-22T11:08:41.767Z,99603.66
2019-02-22T11:11:13.359Z,99600.25
2019-02-22T11:13:44.820Z,99601.47
2019-02-22T11:16:16.426Z,99601.70
2019-02-22T11:18:48.811Z,99601.70
2019-02-22T11:21:20.196Z,99597.81
2019-02-22T11:23:51.910Z,99603.04
2019-02-22T11:26:23.493Z,99604.73
2019-02-22T11:28:54.955Z,99606.52
2019-02-22T11:31:26.540Z,99604.40
2019-02-22T11:33:58.048Z,99604.23
2019-02-22T11:36:29.821Z,99605.26
2019-02-22T11:39:01.526Z,99608.86
2019-02-22T11:41:34.803Z,99601.75
2019-02-22T11:44:06.498Z,99601.75
2019-02-22T11:46:37.986Z,99609.84
2019-02-22T11:49:10.405Z,99601.47
2019-02-22T11:51:42.080Z,99601.47
2019-02-22T11:54:13.721Z,99610.83
2019-02-22T11:56:45.688Z,99610.47
2019-02-22T11:59:17.661Z,99609.70
2019-02-22T12:01:49.521Z,99610.69
2019-02-22T12:04:21.166Z,99610.69
2019-02-22T12:06:52.785Z,99614.22
2019-02-22T12:09:24.778Z,99621.64
2019-02-22T12:11:56.373Z,99617.02
2019-02-22T12:14:27.971Z,99619.84
2019-02-22T12:16:59.459Z,99619.84
2019-02-22T12:19:31.010Z,99622.82
2019-02-22T12:22:02.565Z,99625.75
2019-02-22T12:24:34.182Z,99625.75
2019-02-22T12:27:05.887Z,99636.94
2019-02-22T12:29:37.792Z,99627.11
2019-02-22T12:32:09.433Z,99627.11
2019-02-22T12:34:41.125Z,99630.28
2019-02-22T12:37:12.816Z,99618.97
2019-02-22T12:39:44.194Z,99619.70
2019-02-22T12:42:18.115Z,99624.52
2019-02-22T12:45:02.492Z,99625.27
2019-02-22T12:47:30.666Z,99640.88
2019-02-22T12:50:02.244Z,99640.88
2019-02-22T12:52:34.383Z,99640.88
2019-02-22T12:55:06.741Z,99647.02
2019-02-22T12:57:38.578Z,99650.54
2019-02-22T13:00:13.342Z,99650.54
2019-02-22T13:02:45.182Z,99657.73
2019-02-22T13:05:17.612Z,99661.63
2019-02-22T13:07:52.408Z,99656.77
2019-02-22T13:10:28.126Z,99660.75
2019-02-22T13:12:59.911Z,99660.75
2019-02-22T13:15:31.456Z,99660.75
2019-02-22T13:18:03.205Z,99660.16
2019-02-22T13:20:34.877Z,99666.89
2019-02-22T13:23:06.618Z,99670.48
2019-02-22T13:25:38.026Z,99670.48
2019-02-22T13:28:09.547Z,99680.51
2019-02-22T13:30:41.169Z,99691.31
2019-02-22T13:33:12.632Z,99691.16
2019-02-22T13:35:44.265Z,99693.84
2019-02-22T13:38:15.791Z,99692.27
2019-02-22T13:40:49.207Z,99692.27
2019-02-22T13:43:21.068Z,99695.80
2019-02-22T13:45:52.948Z,99700.33
2019-02-22T13:48:25.054Z,99698.54
2019-02-22T13:50:56.721Z,99697.80
2019-02-22T13:53:28.981Z,99697.03
2019-02-22T13:56:00.510Z,99698.74
2019-02-22T13:58:32.261Z,99690.08
2019-02-22T14:01:04.243Z,99697.89
2019-02-22T14:03:35.834Z,99696.51
2019-02-22T14:06:07.650Z,99696.51
2019-02-22T14:08:39.306Z,99699.28
2019-02-22T14:11:16.926Z,99706.81
2019-02-22T14:13:52.284Z,99712.84
2019-02-22T14:16:27.568Z,99716.77
2019-02-22T14:18:58.968Z,99717.71
2019-02-22T14:21:30.586Z,99723.38
2019-02-22T14:24:02.070Z,99728.94
2019-02-22T14:26:33.829Z,99728.34
2019-02-22T14:29:05.387Z,99724.14
2019-02-22T14:31:36.907Z,99729.88
2019-02-22T14:34:08.573Z,99741.61
2019-02-22T14:36:40.315Z,99757.90
2019-02-22T14:39:12.337Z,99757.90
2019-02-22T14:41:44.133Z,99760.98
2019-02-22T14:44:15.740Z,99752.88
2019-02-22T14:46:47.702Z,99749.89
2019-02-22T14:49:19.278Z,99753.58
2019-02-22T14:51:51.118Z,99753.58
2019-02-22T14:54:22.594Z,99766.14
2019-02-22T14:56:54.514Z,99769.06
2019-02-22T14:59:26.141Z,99769.06
2019-02-22T15:01:58.008Z,99767.82
2019-02-22T15:04:29.597Z,99767.82
2019-02-22T15:07:01.342Z,99770.38
2019-02-22T15:09:34.164Z,99780.50
2019-02-22T15:12:05.793Z,99785.80
2019-02-22T15:14:37.454Z,99790.70
2019-02-22T15:17:33.724Z,99798.59
2019-02-22T15:20:06.261Z,99798.59
2019-02-22T15:22:37.795Z,99798.05
2019-02-22T15:25:10.702Z,99809.85
2019-02-22T15:27:42.684Z,99809.85
2019-02-22T15:30:14.717Z,99809.85
2019-02-22T15:32:46.503Z,99811.09
2019-02-22T15:35:18.412Z,99808.02
2019-02-22T15:37:50.289Z,99805.19
2019-02-22T15:40:22.219Z,99800.09
2019-02-22T15:42:53.586Z,99800.09
2019-02-22T15:45:25.700Z,99802.70
2019-02-22T15:47:57.454Z,99794.17
2019-02-22T15:50:29.289Z,99794.17
2019-02-22T15:53:00.958Z,99788.53
2019-02-22T15:55:32.957Z,99788.53
2019-02-22T15:58:04.436Z,99794.02
2019-02-22T16:00:36.284Z,99804.65
2019-02-22T16:03:07.971Z,99813.05
2019-02-22T16:05:42.328Z,99822.30
2019-02-22T16:08:13.993Z,99825.85
2019-02-22T16:10:45.696Z,99827.00
2019-02-22T16:13:18.191Z,99828.14
2019-02-22T16:15:50.057Z,99830.38
2019-02-22T16:18:21.871Z,99830.28
2019-02-22T16:20:54.129Z,99833.25
2019-02-22T16:23:25.585Z,99829.06
2019-02-22T16:25:58.219Z,99816.87
2019-02-22T16:28:29.751Z,99835.28
2019-02-22T16:31:01.442Z,99835.22
2019-02-22T16:33:34.166Z,99835.22
2019-02-22T16:36:06.110Z,99837.67
2019-02-22T16:38:37.698Z,99839.23
2019-02-22T16:41:09.548Z,99841.63
2019-02-22T16:43:41.136Z,99846.45
2019-02-22T16:46:12.515Z,99848.97
2019-02-22T16:48:44.018Z,99848.97
2019-02-22T16:51:15.877Z,99861.30
2019-02-22T16:53:47.519Z,99876.08
2019-02-22T16:56:19.459Z,99877.98
2019-02-22T16:58:51.160Z,99877.98
2019-02-22T17:01:22.574Z,99876.02
2019-02-22T17:03:54.163Z,99870.28
2019-02-22T17:06:25.825Z,99859.89
2019-02-22T17:08:57.380Z,99859.89
2019-02-22T17:11:29.197Z,99878.34
2019-02-22T17:14:00.699Z,99873.78
2019-02-22T17:16:32.474Z,99869.27
2019-02-22T17:19:03.923Z,99861.49
2019-02-22T17:21:35.871Z,99861.49
2019-02-22T17:24:07.414Z,99870.98
2019-02-22T17:26:40.315Z,99870.98
2019-02-22T17:29:11.668Z,99876.89
2019-02-22T17:31:44.991Z,99882.59
2019-02-22T17:34:16.767Z,99878.07
2019-02-22T17:36:48.256Z,99889.75
2019-02-22T17:39:19.844Z,99888.44
2019-02-22T17:41:51.580Z,99888.44
2019-02-22T17:44:23.283Z,99882.45
2019-02-22T17:46:57.845Z,99879.11
2019-02-22T17:49:28.817Z,99879.11
2019-02-22T17:52:00.372Z,99878.89
2019-02-22T17:54:32.353Z,99875.78
2019-02-22T17:57:03.973Z,99878.83
2019-02-22T17:59:35.779Z,99873.05
2019-02-22T18:02:07.508Z,99872.92
2019-02-22T18:04:38.970Z,99872.92
2019-02-22T18:07:10.602Z,99867.34
2019-02-22T18:09:42.621Z,99865.98
2019-02-22T18:12:14.381Z,99870.69
2019-02-22T18:14:46.061Z,99861.77
2019-02-22T18:17:18.004Z,99861.67
2019-02-22T18:19:49.720Z,99866.23
2019-02-22T18:22:25.883Z,99866.23
2019-02-22T18:24:54.471Z,99864.33
2019-02-22T18:27:26.091Z,99868.58
2019-02-22T18:29:57.746Z,99868.58
2019-02-22T18:32:29.194Z,99861.78
2019-02-22T18:35:00.925Z,99852.83
2019-02-22T18:37:32.563Z,99835.66
2019-02-22T18:40:04.370Z,99832.80
2019-02-22T18:42:36.033Z,99832.80
2019-02-22T18:45:07.988Z,99828.16
2019-02-22T18:47:39.750Z,99821.83
2019-02-22T18:50:11.604Z,99810.31
2019-02-22T18:52:43.408Z,99810.31
2019-02-22T18:55:15.204Z,99798.90
2019-02-22T18:57:46.671Z,99800.94
2019-02-22T19:00:19.888Z,99795.02
2019-02-22T19:02:51.784Z,99793.64
2019-02-22T19:05:23.269Z,99793.64
2019-02-22T19:07:54.712Z,99779.84
2019-02-22T19:10:26.548Z,99779.84
2019-02-22T19:12:58.020Z,99773.33
2019-02-22T19:15:29.540Z,99770.38
2019-02-22T19:18:01.207Z,99768.88
2019-02-22T19:20:32.872Z,99768.88
2019-02-22T19:23:04.346Z,99769.14
2019-02-22T19:25:35.939Z,99762.59
2019-02-22T19:28:07.734Z,99763.30
2019-02-22T19:30:39.035Z,99763.30
2019-02-22T19:33:10.393Z,99760.83
2019-02-22T19:35:42.299Z,99760.83
2019-02-22T19:38:13.951Z,99755.98
2019-02-22T19:40:45.652Z,99749.25
2019-02-22T19:43:17.153Z,99748.75
2019-02-22T19:45:49.916Z,99751.20
2019-02-22T19:48:21.381Z,99751.20
2019-02-22T19:50:53.176Z,99757.22
2019-02-22T19:53:24.735Z,99745.59
2019-02-22T19:55:56.697Z,99743.89
2019-02-22T19:58:28.325Z,99743.27
2019-02-22T20:01:00.037Z,99748.75
2019-02-22T20:03:31.686Z,99750.47
2019-02-22T20:06:03.437Z,99750.47
2019-02-22T20:08:34.989Z,99750.67
2019-02-22T20:11:06.829Z,99747.37
2019-02-22T20:13:38.739Z,99739.88
2019-02-22T20:16:10.576Z,99739.88
2019-02-22T20:18:42.950Z,99735.55
2019-02-22T20:21:14.441Z,99741.02
2019-02-22T20:23:46.272Z,99745.55
2019-02-22T20:26:17.627Z,99740.75
2019-02-22T20:28:49.432Z,99748.81
2019-02-22T20:31:20.961Z,99755.33
2019-02-22T20:33:52.654Z,99759.20
2019-02-22T20:36:28.359Z,99749.12
2019-02-22T20:38:57.479Z,99749.12
2019-02-22T20:41:29.120Z,99745.52
2019-02-22T20:44:00.864Z,99738.39
2019-02-22T20:46:33.210Z,99724.55
2019-02-22T20:49:05.232Z,99724.55
2019-02-22T20:51:37.241Z,99723.04
2019-02-22T20:54:10.153Z,99711.25
2019-02-22T20:56:42.146Z,99714.22
2019-02-22T20:59:13.811Z,99709.45
2019-02-22T21:01:45.573Z,99690.94
2019-02-22T21:04:17.151Z,99691.58
2019-02-22T21:06:48.628Z,99688.47
2019-02-22T21:09:19.979Z,99686.44
2019-02-22T21:11:51.574Z,99686.44
2019-02-22T21:14:23.271Z,99708.02
2019-02-22T21:16:54.748Z,99708.02
2019-02-22T21:19:26.462Z,99698.28
2019-02-22T21:21:57.978Z,99700.22
2019-02-22T21:24:29.542Z,99704.20
2019-02-22T21:27:01.028Z,99704.20
2019-02-22T21:29:32.599Z,99699.40
2019-02-22T21:32:04.448Z,99694.66
2019-02-22T21:34:35.964Z,99694.66
2019-02-22T21:37:07.576Z,99684.83
2019-02-22T21:39:40.119Z,99688.55
2019-02-22T21:42:19.880Z,99684.64
2019-02-22T21:44:45.322Z,99677.33
2019-02-22T21:47:16.869Z,99677.33
2019-02-22T21:49:48.734Z,99679.86
2019-02-22T21:52:20.305Z,99657.69
2019-02-22T21:54:52.140Z,99657.69
2019-02-22T21:57:23.543Z,99668.11
2019-02-22T21:59:55.193Z,99662.43
2019-02-22T22:02:26.688Z,99663.00
2019-02-22T22:04:58.331Z,99661.80
2019-02-22T22:07:29.717Z,99654.78
2019-02-22T22:10:01.363Z,99648.36
2019-02-22T22:12:33.138Z,99660.75
2019-02-22T22:15:05.001Z,99677.40
2019-02-22T22:17:36.735Z,99677.40
2019-02-22T22:20:08.539Z,99684.27
2019-02-22T22:22:40.210Z,99679.05
2019-02-22T22:25:11.956Z,99674.80
2019-02-22T22:27:43.785Z,99686.05
2019-02-22T22:30:15.384Z,99677.09
2019-02-22T22:32:47.133Z,99677.09
2019-02-22T22:35:20.942Z,99659.75
2019-02-22T22:37:53.107Z,99660.25
2019-02-22T22:40:24.536Z,99650.87
2019-02-22T22:42:56.427Z,99658.32
2019-02-22T22:45:28.203Z,99658.32
2019-02-22T22:48:00.248Z,99659.71
2019-02-22T22:50:31.852Z,99665.36
2019-02-22T22:53:04.743Z,99661.34
2019-02-22T22:55:37.131Z,99661.34
2019-02-22T22:58:09.354Z,99650.11
2019-02-22T23:01:03.289Z,99650.11
2019-02-22T23:03:35.997Z,99654.04
2019-02-22T23:06:08.709Z,99657.34
2019-02-22T23:08:40.206Z,99657.34
2019-02-22T23:11:12.364Z,99648.17
2019-02-22T23:13:44.116Z,99646.77
2019-02-22T23:16:16.117Z,99645.15
2019-02-22T23:18:47.833Z,99650.67
2019-02-22T23:21:20.717Z,99650.67
2019-02-22T23:23:52.189Z,99638.71
2019-02-22T23:26:23.688Z,99638.71
2019-02-22T23:28:56.053Z,99634.52
2019-02-22T23:31:27.886Z,99634.52
2019-02-22T23:33:59.344Z,99640.98
2019-02-22T23:36:30.820Z,99641.13
2019-02-22T23:39:03.651Z,99641.13
2019-02-22T23:41:37.045Z,99652.61
2019-02-22T23:44:08.783Z,99659.22
2019-02-22T23:46:40.298Z,99678.12
2019-02-22T23:49:13.314Z,99678.12
2019-02-22T23:51:44.898Z,99656.11
2019-02-22T23:54:16.624Z,99656.11
2019-02-22T23:56:48.244Z,99664.36
2019-02-22T23:59:19.861Z,99666.35
